Bill's Weather Station Status
Memory
total used free shared buff/cache available
Mem: 3918876 596008 107076 2796 3215792 3060404
Swap: 0 0 0
Uptime
09:35:35 up 462 days, 21:21, 0 users, load average: 0.31, 0.32, 0.33
Temperature Database
meteo table size: 880183 rows
Last 50 temperature measurements:
2026-05-09 09:35:05: Inside: 65.4, Outside: 66.3, Pressure: 29.908, Humidity: 48, Illumination: 108.00
2026-05-09 09:30:05: Inside: 65.3, Outside: 65.6, Pressure: 29.909, Humidity: 48, Illumination: 85.00
2026-05-09 09:25:05: Inside: 65.3, Outside: 65.4, Pressure: 29.908, Humidity: 49, Illumination: 80.00
2026-05-09 09:20:05: Inside: 65.2, Outside: 65.6, Pressure: 29.908, Humidity: 48, Illumination: 79.00
2026-05-09 09:15:05: Inside: 65.2, Outside: 65.8, Pressure: 29.910, Humidity: 48, Illumination: 95.00
2026-05-09 09:10:05: Inside: 65.2, Outside: 64.7, Pressure: 29.910, Humidity: 48, Illumination: 92.00
2026-05-09 09:05:05: Inside: 65.2, Outside: 64.3, Pressure: 29.909, Humidity: 48, Illumination: 88.00
2026-05-09 09:00:05: Inside: 65.1, Outside: 64.3, Pressure: 29.912, Humidity: 48, Illumination: 91.00
2026-05-09 08:55:05: Inside: 65.1, Outside: 63.8, Pressure: 29.912, Humidity: 49, Illumination: 100.00
2026-05-09 08:50:05: Inside: 65.1, Outside: 62.9, Pressure: 29.915, Humidity: 48, Illumination: 106.00
2026-05-09 08:45:05: Inside: 65.0, Outside: 61.9, Pressure: 29.913, Humidity: 48, Illumination: 86.00
2026-05-09 08:40:05: Inside: 65.0, Outside: 61.4, Pressure: 29.915, Humidity: 48, Illumination: 68.00
2026-05-09 08:35:05: Inside: 65.0, Outside: 60.8, Pressure: 29.916, Humidity: 49, Illumination: 77.00
2026-05-09 08:30:05: Inside: 64.8, Outside: 60.0, Pressure: 29.919, Humidity: 49, Illumination: 59.00
2026-05-09 08:25:05: Inside: 64.8, Outside: 59.6, Pressure: 29.920, Humidity: 49, Illumination: 51.00
2026-05-09 08:20:05: Inside: 64.8, Outside: 59.5, Pressure: 29.921, Humidity: 49, Illumination: 40.00
2026-05-09 08:15:05: Inside: 64.8, Outside: 59.3, Pressure: 29.924, Humidity: 49, Illumination: 59.00
2026-05-09 08:10:05: Inside: 64.8, Outside: 58.9, Pressure: 29.922, Humidity: 49, Illumination: 49.00
2026-05-09 08:05:05: Inside: 64.7, Outside: 58.3, Pressure: 29.922, Humidity: 49, Illumination: 46.00
2026-05-09 08:00:05: Inside: 64.7, Outside: 57.6, Pressure: 29.922, Humidity: 49, Illumination: 41.00
2026-05-09 07:55:05: Inside: 64.7, Outside: 57.3, Pressure: 29.925, Humidity: 49, Illumination: 28.00
2026-05-09 07:50:05: Inside: 64.7, Outside: 57.2, Pressure: 29.927, Humidity: 49, Illumination: 33.00
2026-05-09 07:45:05: Inside: 64.7, Outside: 57.0, Pressure: 29.925, Humidity: 49, Illumination: 29.00
2026-05-09 07:40:05: Inside: 64.7, Outside: 56.6, Pressure: 29.925, Humidity: 49, Illumination: 26.00
2026-05-09 07:35:06: Inside: 64.7, Outside: 56.6, Pressure: 29.924, Humidity: 49, Illumination: 21.00
2026-05-09 07:30:06: Inside: 64.7, Outside: 56.5, Pressure: 29.921, Humidity: 49, Illumination: 26.00
2026-05-09 07:25:06: Inside: 64.7, Outside: 56.4, Pressure: 29.920, Humidity: 49, Illumination: 23.00
2026-05-09 07:20:06: Inside: 64.7, Outside: 56.3, Pressure: 29.921, Humidity: 49, Illumination: 27.00
2026-05-09 07:15:05: Inside: 64.7, Outside: 56.2, Pressure: 29.923, Humidity: 49, Illumination: 22.00
2026-05-09 07:10:05: Inside: 64.7, Outside: 56.0, Pressure: 29.925, Humidity: 49, Illumination: 27.00
2026-05-09 07:05:05: Inside: 64.7, Outside: 55.5, Pressure: 29.923, Humidity: 49, Illumination: 29.00
2026-05-09 07:00:05: Inside: 64.7, Outside: 55.3, Pressure: 29.927, Humidity: 49, Illumination: 14.00
2026-05-09 06:55:05: Inside: 64.7, Outside: 55.2, Pressure: 29.927, Humidity: 49, Illumination: 14.00
2026-05-09 06:50:05: Inside: 64.7, Outside: 55.1, Pressure: 29.925, Humidity: 49, Illumination: 14.00
2026-05-09 06:45:05: Inside: 64.7, Outside: 54.8, Pressure: 29.925, Humidity: 49, Illumination: 11.00
2026-05-09 06:40:05: Inside: 64.7, Outside: 54.7, Pressure: 29.926, Humidity: 49, Illumination: 7.00
2026-05-09 06:35:06: Inside: 64.7, Outside: 54.7, Pressure: 29.925, Humidity: 49, Illumination: 5.00
2026-05-09 06:30:05: Inside: 64.7, Outside: 54.7, Pressure: 29.924, Humidity: 49, Illumination: 4.00
2026-05-09 06:25:05: Inside: 64.7, Outside: 54.5, Pressure: 29.922, Humidity: 49, Illumination: 4.00
2026-05-09 06:20:05: Inside: 64.7, Outside: 54.5, Pressure: 29.920, Humidity: 49, Illumination: 4.00
2026-05-09 06:15:05: Inside: 64.8, Outside: 54.6, Pressure: 29.922, Humidity: 49, Illumination: 2.00
2026-05-09 06:10:05: Inside: 64.8, Outside: 54.7, Pressure: 29.920, Humidity: 49, Illumination: 2.00
2026-05-09 06:05:05: Inside: 64.7, Outside: 54.7, Pressure: 29.916, Humidity: 49, Illumination: 1.00
2026-05-09 06:00:05: Inside: 64.8, Outside: 54.6, Pressure: 29.916, Humidity: 49, Illumination: 1.00
2026-05-09 05:55:06: Inside: 64.8, Outside: 54.6, Pressure: 29.914, Humidity: 49, Illumination: 1.00
2026-05-09 05:50:06: Inside: 64.8, Outside: 54.5, Pressure: 29.913, Humidity: 49, Illumination: 1.00
2026-05-09 05:45:05: Inside: 64.8, Outside: 54.4, Pressure: 29.913, Humidity: 49, Illumination: 0.00
2026-05-09 05:40:06: Inside: 65.0, Outside: 54.5, Pressure: 29.914, Humidity: 49, Illumination: 0.00
2026-05-09 05:35:05: Inside: 65.0, Outside: 54.5, Pressure: 29.915, Humidity: 49, Illumination: 0.00
2026-05-09 05:30:05: Inside: 65.0, Outside: 54.7, Pressure: 29.915, Humidity: 49, Illumination: 0.00
Gas Readings Database
gas table size: 254381 rows
Last 50 gas reading changes:
2026-05-09 08:55:01: Reading: 101884
2026-05-09 07:36:16: Reading: 101880, ΔT: 78 min, ΔR: 4 cf
2026-05-09 07:32:16: Reading: 101878, ΔT: 4 min, ΔR: 2 cf
2026-05-09 06:59:15: Reading: 101876, ΔT: 33 min, ΔR: 2 cf
2026-05-09 06:18:31: Reading: 101874, ΔT: 40 min, ΔR: 2 cf
2026-05-09 06:16:30: Reading: 101872, ΔT: 2 min, ΔR: 2 cf
2026-05-09 05:01:30: Reading: 101870, ΔT: 75 min, ΔR: 2 cf
2026-05-09 04:57:30: Reading: 101868, ΔT: 4 min, ΔR: 2 cf
2026-05-09 03:38:16: Reading: 101866, ΔT: 79 min, ΔR: 2 cf
2026-05-09 03:36:00: Reading: 101864, ΔT: 2 min, ΔR: 2 cf
2026-05-09 02:10:46: Reading: 101862, ΔT: 85 min, ΔR: 2 cf
2026-05-09 02:08:31: Reading: 101860, ΔT: 2 min, ΔR: 2 cf
2026-05-09 02:00:16: Reading: 101858, ΔT: 8 min, ΔR: 2 cf
2026-05-09 00:55:46: Reading: 101856, ΔT: 64 min, ΔR: 2 cf
2026-05-09 00:53:16: Reading: 101854, ΔT: 2 min, ΔR: 2 cf
2026-05-08 23:36:30: Reading: 101852, ΔT: 76 min, ΔR: 2 cf
2026-05-08 23:32:31: Reading: 101850, ΔT: 3 min, ΔR: 2 cf
2026-05-08 22:05:01: Reading: 101848, ΔT: 87 min, ΔR: 2 cf
2026-05-08 22:02:45: Reading: 101846, ΔT: 2 min, ΔR: 2 cf
2026-05-08 22:00:46: Reading: 101844, ΔT: 1 min, ΔR: 2 cf
2026-05-08 20:29:02: Reading: 101842, ΔT: 91 min, ΔR: 2 cf
2026-05-08 20:25:01: Reading: 101838, ΔT: 4 min, ΔR: 4 cf
2026-05-08 18:49:02: Reading: 101836, ΔT: 95 min, ΔR: 2 cf
2026-05-08 18:46:02: Reading: 101832, ΔT: 3 min, ΔR: 4 cf
2026-05-08 17:00:47: Reading: 101830, ΔT: 105 min, ΔR: 2 cf
2026-05-08 16:58:17: Reading: 101828, ΔT: 2 min, ΔR: 2 cf
2026-05-08 16:57:16: Reading: 101826, ΔT: 1 min, ΔR: 2 cf
2026-05-08 16:56:32: Reading: 101824, ΔT: 0 min, ΔR: 2 cf
2026-05-08 16:53:32: Reading: 101818, ΔT: 3 min, ΔR: 6 cf
2026-05-08 15:25:02: Reading: 101816, ΔT: 88 min, ΔR: 2 cf
2026-05-08 15:22:46: Reading: 101814, ΔT: 2 min, ΔR: 2 cf
2026-05-08 15:21:31: Reading: 101812, ΔT: 1 min, ΔR: 2 cf
2026-05-08 14:14:01: Reading: 101810, ΔT: 67 min, ΔR: 2 cf
2026-05-08 13:11:31: Reading: 101808, ΔT: 62 min, ΔR: 2 cf
2026-05-08 13:07:32: Reading: 101804, ΔT: 3 min, ΔR: 4 cf
2026-05-08 11:58:32: Reading: 101802, ΔT: 69 min, ΔR: 2 cf
2026-05-08 11:57:31: Reading: 101800, ΔT: 1 min, ΔR: 2 cf
2026-05-08 11:56:31: Reading: 101798, ΔT: 1 min, ΔR: 2 cf
2026-05-08 10:47:47: Reading: 101796, ΔT: 68 min, ΔR: 2 cf
2026-05-08 10:42:17: Reading: 101794, ΔT: 5 min, ΔR: 2 cf
2026-05-08 10:41:31: Reading: 101792, ΔT: 0 min, ΔR: 2 cf
2026-05-08 09:47:32: Reading: 101788, ΔT: 53 min, ΔR: 4 cf
2026-05-08 09:45:17: Reading: 101786, ΔT: 2 min, ΔR: 2 cf
2026-05-08 08:49:02: Reading: 101784, ΔT: 56 min, ΔR: 2 cf
2026-05-08 08:42:47: Reading: 101782, ΔT: 6 min, ΔR: 2 cf
2026-05-08 08:20:02: Reading: 101780, ΔT: 22 min, ΔR: 2 cf
2026-05-08 07:26:32: Reading: 101778, ΔT: 53 min, ΔR: 2 cf
2026-05-08 07:25:47: Reading: 101776, ΔT: 0 min, ΔR: 2 cf
2026-05-08 06:10:46: Reading: 101774, ΔT: 75 min, ΔR: 2 cf
2026-05-08 06:08:47: Reading: 101772, ΔT: 1 min, ΔR: 2 cf